createdAt,value
2023-11-12T00:00:27.771Z,100260.0
2023-11-12T00:02:26.602Z,100250.0
2023-11-12T00:04:26.191Z,100250.0
2023-11-12T00:06:25.701Z,100250.0
2023-11-12T00:08:25.266Z,100250.0
2023-11-12T00:10:25.814Z,100240.0
2023-11-12T00:12:27.397Z,100240.0
2023-11-12T00:14:24.347Z,100240.0
2023-11-12T00:16:24.681Z,100240.0
2023-11-12T00:20:25.114Z,100240.0
2023-11-12T00:22:22.429Z,100240.0
2023-11-12T00:24:22.756Z,100240.0
2023-11-12T00:26:22.466Z,100230.0
2023-11-12T00:28:20.877Z,100230.0
2023-11-12T00:30:21.290Z,100230.0
2023-11-12T00:34:19.609Z,100240.0
2023-11-12T00:36:19.873Z,100230.0
2023-11-12T00:38:18.796Z,100230.0
2023-11-12T00:40:18.404Z,100230.0
2023-11-12T00:42:17.780Z,100230.0
2023-11-12T00:44:17.698Z,100230.0
2023-11-12T00:46:17.010Z,100230.0
2023-11-12T00:50:16.806Z,100230.0
2023-11-12T00:52:16.354Z,100230.0
2023-11-12T00:54:15.094Z,100230.0
2023-11-12T00:56:15.012Z,100230.0
2023-11-12T00:58:14.184Z,100220.0
2023-11-12T01:00:14.789Z,100220.0
2023-11-12T01:02:16.185Z,100220.0
2023-11-12T01:04:15.315Z,100220.0
2023-11-12T01:06:12.412Z,100220.0
2023-11-12T01:08:11.888Z,100210.0
2023-11-12T01:10:11.563Z,100210.0
2023-11-12T01:14:10.988Z,100210.0
2023-11-12T01:16:10.445Z,100210.0
2023-11-12T01:18:09.928Z,100200.0
2023-11-12T01:20:10.467Z,100200.0
2023-11-12T01:22:08.786Z,100200.0
2023-11-12T01:24:08.747Z,100200.0
2023-11-12T01:26:07.982Z,100200.0
2023-11-12T01:28:07.711Z,100190.0
2023-11-12T01:30:07.736Z,100190.0
2023-11-12T01:32:06.595Z,100190.0
2023-11-12T01:36:06.562Z,100190.0
2023-11-12T01:38:05.179Z,100190.0
2023-11-12T01:42:10.658Z,100170.0
2023-11-12T01:44:04.339Z,100170.0
2023-11-12T01:46:04.966Z,100170.0
2023-11-12T01:50:03.781Z,100160.0
2023-11-12T01:52:03.065Z,100160.0
2023-11-12T01:56:03.473Z,100150.0
2023-11-12T02:00:00.870Z,100140.0
2023-11-12T02:01:59.980Z,100130.0
2023-11-12T02:04:00.222Z,100130.0
2023-11-12T02:05:59.498Z,100130.0
2023-11-12T02:08:00.844Z,100130.0
2023-11-12T02:10:08.226Z,100130.0
2023-11-12T02:11:57.771Z,100130.0
2023-11-12T02:13:58.134Z,100120.0
2023-11-12T02:15:56.981Z,100120.0
2023-11-12T02:17:57.708Z,100120.0
2023-11-12T02:20:02.375Z,100130.0
2023-11-12T02:21:56.341Z,100120.0
2023-11-12T02:23:55.098Z,100130.0
2023-11-12T02:25:57.790Z,100120.0
2023-11-12T02:27:54.140Z,100120.0
2023-11-12T02:29:53.878Z,100110.0
2023-11-12T02:31:53.204Z,100110.0
2023-11-12T02:33:53.052Z,100110.0
2023-11-12T02:35:52.238Z,100110.0
2023-11-12T02:37:51.857Z,100100.0
2023-11-12T02:39:51.762Z,100100.0
2023-11-12T02:41:51.340Z,100100.0
2023-11-12T02:43:50.569Z,100110.0
2023-11-12T02:45:50.377Z,100100.0
2023-11-12T02:47:49.850Z,100100.0
2023-11-12T02:50:07.502Z,100100.0
2023-11-12T02:51:49.278Z,100100.0
2023-11-12T02:53:48.377Z,100100.0
2023-11-12T02:55:48.059Z,100090.0
2023-11-12T02:57:47.787Z,100080.0
2023-11-12T02:59:47.373Z,100080.0
2023-11-12T03:01:46.987Z,100080.0
2023-11-12T03:03:46.320Z,100070.0
2023-11-12T03:05:46.024Z,100070.0
2023-11-12T03:07:45.544Z,100070.0
2023-11-12T03:09:45.434Z,100070.0
2023-11-12T03:11:44.716Z,100070.0
2023-11-12T03:13:44.821Z,100060.0
2023-11-12T03:15:43.713Z,100060.0
2023-11-12T03:17:44.176Z,100060.0
2023-11-12T03:19:43.140Z,100060.0
2023-11-12T03:21:42.524Z,100080.0
2023-11-12T03:23:41.883Z,100070.0
2023-11-12T03:25:41.454Z,100070.0
2023-11-12T03:27:41.116Z,100060.0
2023-11-12T03:29:40.942Z,100060.0
2023-11-12T03:31:40.319Z,100060.0
2023-11-12T03:33:39.820Z,100050.0
2023-11-12T03:35:39.299Z,100050.0
2023-11-12T03:37:39.281Z,100050.0
2023-11-12T03:39:38.579Z,100050.0
2023-11-12T03:41:37.904Z,100050.0
2023-11-12T03:43:37.987Z,100040.0
2023-11-12T03:45:37.311Z,100040.0
2023-11-12T03:47:36.571Z,100030.0
2023-11-12T03:49:36.547Z,100040.0
2023-11-12T03:51:35.762Z,100040.0
2023-11-12T03:53:35.314Z,100040.0
2023-11-12T03:55:34.872Z,100040.0
2023-11-12T03:57:34.523Z,100050.0
2023-11-12T03:59:34.727Z,100050.0
2023-11-12T04:01:33.592Z,100050.0
2023-11-12T04:03:33.259Z,100050.0
2023-11-12T04:05:32.770Z,100050.0
2023-11-12T04:07:32.250Z,100050.0
2023-11-12T04:09:31.877Z,100050.0
2023-11-12T04:11:32.341Z,100050.0
2023-11-12T04:13:30.935Z,100050.0
2023-11-12T04:15:30.556Z,100050.0
2023-11-12T04:17:30.623Z,100050.0
2023-11-12T04:19:29.745Z,100050.0
2023-11-12T04:21:29.449Z,100060.0
2023-11-12T04:25:28.485Z,100070.0
2023-11-12T04:27:27.999Z,100080.0
2023-11-12T04:29:28.223Z,100070.0
2023-11-12T04:31:27.336Z,100080.0
2023-11-12T04:33:26.779Z,100080.0
2023-11-12T04:35:26.312Z,100090.0
2023-11-12T04:37:25.898Z,100090.0
2023-11-12T04:39:25.421Z,100100.0
2023-11-12T04:41:25.414Z,100100.0
2023-11-12T04:43:24.589Z,100110.0
2023-11-12T04:45:24.701Z,100120.0
2023-11-12T04:47:24.650Z,100120.0
2023-11-12T04:49:24.403Z,100120.0
2023-11-12T04:51:23.016Z,100120.0
2023-11-12T04:53:22.449Z,100120.0
2023-11-12T04:55:22.010Z,100130.0
2023-11-12T04:57:21.685Z,100120.0
2023-11-12T05:01:21.267Z,100120.0
2023-11-12T05:03:20.541Z,100130.0
2023-11-12T05:05:20.242Z,100120.0
2023-11-12T05:07:19.501Z,100110.0
2023-11-12T05:09:19.278Z,100120.0
2023-11-12T05:13:18.535Z,100120.0
2023-11-12T05:15:17.940Z,100120.0
2023-11-12T05:17:17.379Z,100120.0
2023-11-12T05:19:17.098Z,100120.0
2023-11-12T05:21:17.947Z,100120.0
2023-11-12T05:25:15.822Z,100120.0
2023-11-12T05:27:15.513Z,100110.0
2023-11-12T05:29:14.898Z,100120.0
2023-11-12T05:31:14.713Z,100120.0
2023-11-12T05:33:14.081Z,100120.0
2023-11-12T05:37:13.327Z,100120.0
2023-11-12T05:39:15.078Z,100120.0
2023-11-12T05:41:12.343Z,100120.0
2023-11-12T05:43:12.033Z,100120.0
2023-11-12T05:45:12.343Z,100130.0
2023-11-12T05:47:11.167Z,100130.0
2023-11-12T05:49:10.842Z,100130.0
2023-11-12T05:51:10.648Z,100130.0
2023-11-12T05:53:09.823Z,100130.0
2023-11-12T05:55:10.149Z,100140.0
2023-11-12T05:57:09.100Z,100140.0
2023-11-12T05:59:08.510Z,100140.0
2023-11-12T06:01:08.195Z,100140.0
2023-11-12T06:03:07.792Z,100140.0
2023-11-12T06:05:07.518Z,100140.0
2023-11-12T06:07:06.972Z,100140.0
2023-11-12T06:09:07.482Z,100140.0
2023-11-12T06:11:06.281Z,100140.0
2023-11-12T06:13:05.651Z,100140.0
2023-11-12T06:15:06.144Z,100150.0
2023-11-12T06:19:04.691Z,100140.0
2023-11-12T06:25:03.550Z,100130.0
2023-11-12T06:27:02.968Z,100130.0
2023-11-12T06:29:02.510Z,100130.0
2023-11-12T06:31:01.849Z,100130.0
2023-11-12T06:33:01.464Z,100130.0
2023-11-12T06:35:01.058Z,100130.0
2023-11-12T06:37:01.153Z,100140.0
2023-11-12T06:39:00.171Z,100130.0
2023-11-12T06:41:00.052Z,100130.0
2023-11-12T06:42:59.294Z,100130.0
2023-11-12T06:44:58.995Z,100130.0
2023-11-12T06:46:58.626Z,100140.0
2023-11-12T06:50:57.617Z,100140.0
2023-11-12T06:52:57.222Z,100130.0
2023-11-12T06:54:58.967Z,100130.0
2023-11-12T06:56:57.635Z,100130.0
2023-11-12T06:58:55.841Z,100150.0
2023-11-12T07:00:55.560Z,100140.0
2023-11-12T07:02:55.147Z,100140.0
2023-11-12T07:07:05.942Z,100140.0
2023-11-12T07:08:53.698Z,100150.0
2023-11-12T07:10:53.265Z,100150.0
2023-11-12T07:12:52.837Z,100150.0
2023-11-12T07:14:52.433Z,100150.0
2023-11-12T07:16:53.589Z,100150.0
2023-11-12T07:18:54.372Z,100160.0
2023-11-12T07:20:51.084Z,100160.0
2023-11-12T07:22:50.636Z,100160.0
2023-11-12T07:24:51.447Z,100160.0
2023-11-12T07:26:50.067Z,100160.0
2023-11-12T07:28:49.467Z,100160.0
2023-11-12T07:30:49.013Z,100160.0
2023-11-12T07:32:48.640Z,100160.0
2023-11-12T07:36:47.866Z,100160.0
2023-11-12T07:38:47.697Z,100160.0
2023-11-12T07:40:47.432Z,100160.0
2023-11-12T07:42:46.508Z,100160.0
2023-11-12T07:44:47.142Z,100170.0
2023-11-12T07:46:45.685Z,100170.0
2023-11-12T07:48:45.319Z,100170.0
2023-11-12T07:50:44.731Z,100170.0
2023-11-12T07:52:44.273Z,100170.0
2023-11-12T07:54:44.276Z,100180.0
2023-11-12T07:56:44.471Z,100180.0
2023-11-12T07:58:44.489Z,100180.0
2023-11-12T08:00:42.595Z,100190.0
2023-11-12T08:02:42.502Z,100190.0
2023-11-12T08:04:41.699Z,100190.0
2023-11-12T08:06:44.743Z,100180.0
2023-11-12T08:08:40.934Z,100180.0
2023-11-12T08:10:40.588Z,100190.0
2023-11-12T08:12:40.170Z,100180.0
2023-11-12T08:14:40.192Z,100190.0
2023-11-12T08:18:39.639Z,100190.0
2023-11-12T08:20:38.650Z,100200.0
2023-11-12T08:24:37.903Z,100210.0
2023-11-12T08:26:39.515Z,100210.0
2023-11-12T08:28:36.921Z,100210.0
2023-11-12T08:30:36.863Z,100210.0
2023-11-12T08:32:36.382Z,100210.0
2023-11-12T08:34:35.772Z,100210.0
2023-11-12T08:36:35.674Z,100210.0
2023-11-12T08:40:35.901Z,100210.0
2023-11-12T08:44:33.771Z,100210.0
2023-11-12T08:46:33.486Z,100210.0
2023-11-12T08:48:34.751Z,100210.0
2023-11-12T08:50:33.078Z,100210.0
2023-11-12T08:52:32.264Z,100210.0
2023-11-12T08:54:32.179Z,100220.0
2023-11-12T08:56:31.877Z,100210.0
2023-11-12T08:58:31.189Z,100220.0
2023-11-12T09:00:30.670Z,100220.0
2023-11-12T09:06:30.182Z,100210.0
2023-11-12T09:08:29.092Z,100210.0
2023-11-12T09:10:28.725Z,100220.0
2023-11-12T09:12:28.571Z,100210.0
2023-11-12T09:14:28.632Z,100210.0
2023-11-12T09:16:27.683Z,100220.0
2023-11-12T09:18:28.641Z,100220.0
2023-11-12T09:20:27.476Z,100210.0
2023-11-12T09:24:26.251Z,100220.0
2023-11-12T09:26:25.875Z,100210.0
2023-11-12T09:28:25.293Z,100220.0
2023-11-12T09:30:25.072Z,100220.0
2023-11-12T09:32:24.740Z,100220.0
2023-11-12T09:34:24.193Z,100220.0
2023-11-12T09:36:24.476Z,100220.0
2023-11-12T09:38:23.433Z,100210.0
2023-11-12T09:42:27.218Z,100210.0
2023-11-12T09:44:26.734Z,100210.0
2023-11-12T09:46:23.142Z,100210.0
2023-11-12T09:48:31.037Z,100210.0
2023-11-12T09:50:22.773Z,100210.0
2023-11-12T09:52:22.138Z,100210.0
2023-11-12T09:54:21.032Z,100210.0
2023-11-12T09:56:24.257Z,100210.0
2023-11-12T09:58:19.893Z,100210.0
2023-11-12T10:00:19.875Z,100210.0
2023-11-12T10:02:19.700Z,100210.0
2023-11-12T10:04:18.652Z,100210.0
2023-11-12T10:08:18.679Z,100220.0
2023-11-12T10:10:21.986Z,100210.0
2023-11-12T10:14:23.123Z,100230.0
2023-11-12T10:16:25.088Z,100220.0
2023-11-12T10:18:26.995Z,100220.0
2023-11-12T10:20:19.830Z,100230.0
2023-11-12T10:22:16.346Z,100230.0
2023-11-12T10:24:14.851Z,100230.0
2023-11-12T10:26:14.656Z,100240.0
2023-11-12T10:28:15.190Z,100240.0
2023-11-12T10:30:17.280Z,100240.0
2023-11-12T10:32:24.839Z,100240.0
2023-11-12T10:34:15.648Z,100240.0
2023-11-12T10:36:14.105Z,100250.0
2023-11-12T10:38:15.205Z,100240.0
2023-11-12T10:40:12.827Z,100250.0
2023-11-12T10:42:22.360Z,100240.0
2023-11-12T10:44:12.532Z,100250.0
2023-11-12T10:48:10.971Z,100250.0
2023-11-12T10:50:12.441Z,100260.0
2023-11-12T10:52:10.328Z,100260.0
2023-11-12T10:54:11.494Z,100260.0
2023-11-12T10:56:10.703Z,100260.0
2023-11-12T10:58:09.984Z,100260.0
2023-11-12T11:00:10.789Z,100250.0
2023-11-12T11:02:13.989Z,100250.0
2023-11-12T11:04:09.238Z,100250.0
2023-11-12T11:06:07.768Z,100250.0
2023-11-12T11:08:06.954Z,100250.0
2023-11-12T11:10:07.532Z,100250.0
2023-11-12T11:12:07.073Z,100250.0
2023-11-12T11:16:07.958Z,100250.0
2023-11-12T11:18:05.382Z,100240.0
2023-11-12T11:20:05.689Z,100230.0
2023-11-12T11:22:23.850Z,100240.0
2023-11-12T11:24:05.244Z,100240.0
2023-11-12T11:26:25.326Z,100240.0
2023-11-12T11:28:18.043Z,100240.0
2023-11-12T11:30:06.208Z,100230.0
2023-11-12T11:32:14.191Z,100230.0
2023-11-12T11:34:03.914Z,100230.0
2023-11-12T11:40:23.411Z,100220.0
2023-11-12T11:42:12.020Z,100210.0
2023-11-12T11:44:22.701Z,100200.0
2023-11-12T11:46:13.324Z,100200.0
2023-11-12T11:48:04.013Z,100200.0
2023-11-12T11:50:21.356Z,100200.0
2023-11-12T11:52:00.487Z,100200.0
2023-11-12T11:54:03.676Z,100180.0
2023-11-12T11:56:05.513Z,100190.0
2023-11-12T11:58:04.507Z,100190.0
2023-11-12T11:59:59.774Z,100190.0
2023-11-12T12:01:59.350Z,100180.0
2023-11-12T12:04:02.325Z,100180.0
2023-11-12T12:05:57.471Z,100180.0
2023-11-12T12:08:00.742Z,100180.0
2023-11-12T12:10:00.126Z,100180.0
2023-11-12T12:11:56.621Z,100180.0
2023-11-12T12:13:56.891Z,100180.0
2023-11-12T12:15:56.016Z,100170.0
2023-11-12T12:17:55.914Z,100170.0
2023-11-12T12:19:56.006Z,100170.0
2023-11-12T12:21:55.770Z,100180.0
2023-11-12T12:23:54.963Z,100180.0
2023-11-12T12:27:54.379Z,100170.0
2023-11-12T12:29:54.938Z,100170.0
2023-11-12T12:31:54.631Z,100170.0
2023-11-12T12:34:01.633Z,100180.0
2023-11-12T12:38:05.765Z,100170.0
2023-11-12T12:40:01.646Z,100180.0
2023-11-12T12:41:55.793Z,100180.0
2023-11-12T12:45:59.047Z,100180.0
2023-11-12T12:49:50.536Z,100180.0
2023-11-12T12:51:51.019Z,100180.0
2023-11-12T12:53:50.821Z,100190.0
2023-11-12T12:55:51.764Z,100190.0
2023-11-12T12:57:50.163Z,100200.0
2023-11-12T12:59:48.923Z,100190.0
2023-11-12T13:01:49.007Z,100190.0
2023-11-12T13:03:48.723Z,100190.0
2023-11-12T13:05:47.980Z,100190.0
2023-11-12T13:07:49.270Z,100190.0
2023-11-12T13:09:49.992Z,100190.0
2023-11-12T13:11:47.549Z,100180.0
2023-11-12T13:13:46.734Z,100180.0
2023-11-12T13:15:47.012Z,100170.0
2023-11-12T13:19:46.043Z,100170.0
2023-11-12T13:21:56.748Z,100170.0
2023-11-12T13:23:45.286Z,100170.0
2023-11-12T13:25:47.045Z,100180.0
2023-11-12T13:27:44.682Z,100190.0
2023-11-12T13:29:47.604Z,100190.0
2023-11-12T13:31:44.002Z,100190.0
2023-11-12T13:33:43.966Z,100180.0
2023-11-12T13:35:43.434Z,100190.0
2023-11-12T13:37:45.296Z,100190.0
2023-11-12T13:39:42.635Z,100190.0
2023-11-12T13:41:43.065Z,100190.0
2023-11-12T13:43:42.659Z,100190.0
2023-11-12T13:45:43.279Z,100190.0
2023-11-12T13:47:42.060Z,100190.0
2023-11-12T13:49:41.549Z,100190.0
2023-11-12T13:51:41.409Z,100190.0
2023-11-12T13:53:41.093Z,100190.0
2023-11-12T13:55:41.180Z,100190.0
2023-11-12T13:57:39.884Z,100190.0
2023-11-12T13:59:39.979Z,100190.0
2023-11-12T14:03:40.128Z,100200.0
2023-11-12T14:05:39.237Z,100200.0
2023-11-12T14:07:39.183Z,100200.0
2023-11-12T14:09:38.568Z,100200.0
2023-11-12T14:11:39.796Z,100200.0
2023-11-12T14:13:37.308Z,100200.0
2023-11-12T14:17:36.964Z,100200.0
2023-11-12T14:19:36.982Z,100200.0
2023-11-12T14:23:37.648Z,100200.0
2023-11-12T14:25:35.934Z,100200.0
2023-11-12T14:29:34.745Z,100200.0
2023-11-12T14:31:34.942Z,100200.0
2023-11-12T14:33:34.272Z,100190.0
2023-11-12T14:35:33.932Z,100200.0
2023-11-12T14:37:33.574Z,100210.0
2023-11-12T14:39:33.578Z,100220.0
2023-11-12T14:41:32.807Z,100220.0
2023-11-12T14:43:38.397Z,100220.0
2023-11-12T14:45:32.736Z,100220.0
2023-11-12T14:47:34.343Z,100230.0
2023-11-12T14:49:31.497Z,100230.0
2023-11-12T14:51:33.245Z,100240.0
2023-11-12T14:55:30.728Z,100250.0
2023-11-12T14:57:31.472Z,100260.0
2023-11-12T14:59:30.435Z,100260.0
2023-11-12T15:01:29.898Z,100260.0
2023-11-12T15:03:29.273Z,100260.0
2023-11-12T15:05:29.071Z,100270.0
2023-11-12T15:07:28.611Z,100270.0
2023-11-12T15:09:29.615Z,100270.0
2023-11-12T15:11:30.982Z,100280.0
2023-11-12T15:13:27.668Z,100280.0
2023-11-12T15:15:27.416Z,100280.0
2023-11-12T15:19:26.721Z,100290.0
2023-11-12T15:21:27.427Z,100290.0
2023-11-12T15:23:26.130Z,100290.0
2023-11-12T15:25:25.828Z,100290.0
2023-11-12T15:27:25.449Z,100290.0
2023-11-12T15:29:25.074Z,100300.0
2023-11-12T15:33:25.352Z,100310.0
2023-11-12T15:35:24.258Z,100310.0
2023-11-12T15:37:24.215Z,100300.0
2023-11-12T15:41:23.405Z,100300.0
2023-11-12T15:45:23.669Z,100300.0
2023-11-12T15:47:22.524Z,100290.0
2023-11-12T15:49:22.001Z,100290.0
2023-11-12T15:53:22.560Z,100290.0
2023-11-12T15:55:21.697Z,100290.0
2023-11-12T15:57:20.591Z,100280.0
2023-11-12T15:59:20.512Z,100280.0
2023-11-12T16:01:20.093Z,100290.0
2023-11-12T16:03:19.803Z,100290.0
2023-11-12T16:05:19.459Z,100300.0
2023-11-12T16:07:19.494Z,100300.0
2023-11-12T16:09:19.446Z,100300.0
2023-11-12T16:11:18.333Z,100290.0
2023-11-12T16:13:18.042Z,100290.0
2023-11-12T16:15:17.750Z,100290.0
2023-11-12T16:21:16.592Z,100280.0
2023-11-12T16:23:16.282Z,100280.0
2023-11-12T16:27:16.370Z,100290.0
2023-11-12T16:29:15.175Z,100290.0
2023-11-12T16:31:14.928Z,100300.0
2023-11-12T16:33:14.694Z,100300.0
2023-11-12T16:35:14.109Z,100290.0
2023-11-12T16:37:14.896Z,100290.0
2023-11-12T16:39:16.201Z,100290.0
2023-11-12T16:41:13.138Z,100280.0
2023-11-12T16:43:12.772Z,100280.0
2023-11-12T16:45:13.097Z,100290.0
2023-11-12T16:47:13.792Z,100280.0
2023-11-12T16:49:11.709Z,100280.0
2023-11-12T16:51:11.481Z,100280.0
2023-11-12T16:53:10.962Z,100270.0
2023-11-12T16:55:10.664Z,100270.0
2023-11-12T16:57:10.524Z,100280.0
2023-11-12T16:59:09.947Z,100290.0
2023-11-12T17:01:09.648Z,100290.0
2023-11-12T17:03:09.707Z,100290.0
2023-11-12T17:05:09.062Z,100280.0
2023-11-12T17:07:10.573Z,100280.0
2023-11-12T17:09:09.325Z,100290.0
2023-11-12T17:11:08.258Z,100290.0
2023-11-12T17:13:07.753Z,100300.0
2023-11-12T17:15:09.964Z,100310.0
2023-11-12T17:17:06.801Z,100320.0
2023-11-12T17:19:08.907Z,100320.0
2023-11-12T17:21:06.915Z,100320.0
2023-11-12T17:23:05.774Z,100330.0
2023-11-12T17:25:07.340Z,100350.0
2023-11-12T17:27:06.189Z,100360.0
2023-11-12T17:29:05.060Z,100370.0
2023-11-12T17:31:04.408Z,100370.0
2023-11-12T17:33:04.037Z,100360.0
2023-11-12T17:35:04.518Z,100350.0
2023-11-12T17:37:03.567Z,100340.0
2023-11-12T17:39:04.703Z,100340.0
2023-11-12T17:41:03.331Z,100360.0
2023-11-12T17:43:02.355Z,100380.0
2023-11-12T17:45:04.200Z,100400.0
2023-11-12T17:47:01.533Z,100390.0
2023-11-12T17:49:01.320Z,100390.0
2023-11-12T17:53:00.613Z,100390.0
2023-11-12T17:55:00.303Z,100400.0
2023-11-12T17:59:00.396Z,100390.0
2023-11-12T18:01:00.731Z,100390.0
2023-11-12T18:02:58.699Z,100400.0
2023-11-12T18:04:58.578Z,100400.0
2023-11-12T18:06:58.140Z,100400.0
2023-11-12T18:08:57.597Z,100400.0
2023-11-12T18:10:57.428Z,100400.0
2023-11-12T18:12:58.426Z,100400.0
2023-11-12T18:16:58.153Z,100390.0
2023-11-12T18:20:55.618Z,100380.0
2023-11-12T18:22:55.379Z,100380.0
2023-11-12T18:24:55.049Z,100370.0
2023-11-12T18:28:54.221Z,100370.0
2023-11-12T18:32:53.502Z,100380.0
2023-11-12T18:34:53.304Z,100380.0
2023-11-12T18:36:52.784Z,100390.0
2023-11-12T18:38:52.339Z,100390.0
2023-11-12T18:40:52.224Z,100380.0
2023-11-12T18:42:52.540Z,100390.0
2023-11-12T18:44:51.445Z,100390.0
2023-11-12T18:46:51.152Z,100380.0
2023-11-12T18:48:51.123Z,100380.0
2023-11-12T18:50:52.111Z,100360.0
2023-11-12T18:52:50.081Z,100370.0
2023-11-12T18:54:49.579Z,100370.0
2023-11-12T18:56:49.178Z,100360.0
2023-11-12T18:58:53.182Z,100360.0
2023-11-12T19:00:49.338Z,100370.0
2023-11-12T19:02:49.399Z,100370.0
2023-11-12T19:04:47.828Z,100370.0
2023-11-12T19:06:48.929Z,100370.0
2023-11-12T19:08:47.143Z,100360.0
2023-11-12T19:10:47.131Z,100370.0
2023-11-12T19:12:46.474Z,100370.0
2023-11-12T19:14:47.373Z,100370.0
2023-11-12T19:16:45.676Z,100370.0
2023-11-12T19:18:45.388Z,100400.0
2023-11-12T19:20:44.900Z,100400.0
2023-11-12T19:22:44.777Z,100400.0
2023-11-12T19:24:44.991Z,100390.0
2023-11-12T19:26:43.955Z,100380.0
2023-11-12T19:28:43.444Z,100380.0
2023-11-12T19:30:43.287Z,100370.0
2023-11-12T19:32:42.908Z,100360.0
2023-11-12T19:34:42.436Z,100340.0
2023-11-12T19:36:42.901Z,100340.0
2023-11-12T19:38:41.598Z,100340.0
2023-11-12T19:40:43.555Z,100340.0
2023-11-12T19:42:40.891Z,100340.0
2023-11-12T19:44:41.263Z,100330.0
2023-11-12T19:46:40.987Z,100320.0
2023-11-12T19:48:39.889Z,100340.0
2023-11-12T19:52:39.075Z,100310.0
2023-11-12T19:54:41.530Z,100310.0
2023-11-12T19:56:39.728Z,100320.0
2023-11-12T19:58:38.544Z,100330.0
2023-11-12T20:00:38.718Z,100330.0
2023-11-12T20:02:38.546Z,100350.0
2023-11-12T20:04:37.017Z,100370.0
2023-11-12T20:08:36.203Z,100370.0
2023-11-12T20:10:35.833Z,100380.0
2023-11-12T20:12:37.789Z,100380.0
2023-11-12T20:14:36.780Z,100380.0
2023-11-12T20:16:35.985Z,100360.0
2023-11-12T20:18:34.519Z,100380.0
2023-11-12T20:20:34.008Z,100390.0
2023-11-12T20:22:33.756Z,100400.0
2023-11-12T20:24:36.888Z,100380.0
2023-11-12T20:26:33.628Z,100370.0
2023-11-12T20:28:32.856Z,100370.0
2023-11-12T20:30:35.960Z,100380.0
2023-11-12T20:32:31.846Z,100380.0
2023-11-12T20:34:31.463Z,100380.0
2023-11-12T20:36:34.121Z,100380.0
2023-11-12T20:38:34.769Z,100370.0
2023-11-12T20:40:30.492Z,100360.0
2023-11-12T20:42:29.996Z,100370.0
2023-11-12T20:44:30.540Z,100360.0
2023-11-12T20:46:30.194Z,100360.0
2023-11-12T20:50:32.935Z,100350.0
2023-11-12T20:52:29.900Z,100340.0
2023-11-12T20:54:28.007Z,100330.0
2023-11-12T20:56:27.605Z,100330.0
2023-11-12T20:58:28.074Z,100310.0
2023-11-12T21:00:28.451Z,100300.0
2023-11-12T21:02:26.707Z,100290.0
2023-11-12T21:04:26.294Z,100290.0
2023-11-12T21:06:26.041Z,100300.0
2023-11-12T21:08:25.755Z,100290.0
2023-11-12T21:10:25.530Z,100290.0
2023-11-12T21:12:24.854Z,100290.0
2023-11-12T21:16:25.674Z,100280.0
2023-11-12T21:18:25.942Z,100280.0
2023-11-12T21:20:23.529Z,100280.0
2023-11-12T21:22:23.703Z,100290.0
2023-11-12T21:24:22.907Z,100280.0
2023-11-12T21:28:22.394Z,100300.0
2023-11-12T21:30:25.026Z,100310.0
2023-11-12T21:32:22.075Z,100310.0
2023-11-12T21:34:21.315Z,100300.0
2023-11-12T21:36:20.816Z,100300.0
2023-11-12T21:38:20.506Z,100300.0
2023-11-12T21:40:20.206Z,100320.0
2023-11-12T21:42:19.577Z,100320.0
2023-11-12T21:44:22.187Z,100310.0
2023-11-12T21:46:19.514Z,100310.0
2023-11-12T21:48:19.836Z,100320.0
2023-11-12T21:54:20.785Z,100340.0
2023-11-12T21:56:17.349Z,100350.0
2023-11-12T22:02:16.252Z,100370.0
2023-11-12T22:06:15.508Z,100340.0
2023-11-12T22:08:15.332Z,100340.0
2023-11-12T22:10:14.929Z,100350.0
2023-11-12T22:12:14.611Z,100350.0
2023-11-12T22:14:14.154Z,100350.0
2023-11-12T22:16:14.151Z,100350.0
2023-11-12T22:18:13.400Z,100360.0
2023-11-12T22:20:14.120Z,100360.0
2023-11-12T22:22:12.674Z,100360.0
2023-11-12T22:26:11.966Z,100370.0
2023-11-12T22:28:11.657Z,100360.0
2023-11-12T22:30:13.004Z,100350.0
2023-11-12T22:32:10.953Z,100330.0
2023-11-12T22:34:11.116Z,100330.0
2023-11-12T22:36:10.212Z,100330.0
2023-11-12T22:38:09.906Z,100340.0
2023-11-12T22:40:11.805Z,100340.0
2023-11-12T22:42:09.609Z,100340.0
2023-11-12T22:44:10.385Z,100350.0
2023-11-12T22:46:08.839Z,100350.0
2023-11-12T22:48:08.347Z,100350.0
2023-11-12T22:50:09.193Z,100350.0
2023-11-12T22:52:07.633Z,100340.0
2023-11-12T22:54:09.591Z,100340.0
2023-11-12T22:56:06.776Z,100330.0
2023-11-12T22:58:06.364Z,100340.0
2023-11-12T23:00:20.638Z,100340.0
2023-11-12T23:02:06.706Z,100350.0
2023-11-12T23:04:05.531Z,100350.0
2023-11-12T23:06:05.192Z,100340.0
2023-11-12T23:08:06.539Z,100330.0
2023-11-12T23:10:06.949Z,100340.0
2023-11-12T23:12:07.042Z,100330.0
2023-11-12T23:14:04.281Z,100320.0
2023-11-12T23:18:04.225Z,100310.0
2023-11-12T23:20:03.499Z,100320.0
2023-11-12T23:22:04.498Z,100320.0
2023-11-12T23:26:02.518Z,100310.0
2023-11-12T23:28:01.009Z,100300.0
2023-11-12T23:30:00.634Z,100310.0
2023-11-12T23:32:00.717Z,100310.0
2023-11-12T23:34:00.018Z,100300.0
2023-11-12T23:35:59.673Z,100320.0
2023-11-12T23:37:59.222Z,100320.0
2023-11-12T23:39:58.952Z,100310.0
2023-11-12T23:43:58.267Z,100300.0
2023-11-12T23:45:58.826Z,100300.0
2023-11-12T23:47:57.378Z,100290.0
2023-11-12T23:49:57.277Z,100290.0
2023-11-12T23:51:57.324Z,100300.0
2023-11-12T23:53:56.359Z,100310.0
2023-11-12T23:55:56.176Z,100300.0
2023-11-12T23:57:55.586Z,100290.0
2023-11-12T23:59:55.167Z,100290.0
